Tiempo atmosférico en la estación meteorológica de Alcala de Henares, Madrid (605 m.)



Fecha
DESCASC
Temp. máxima en grados centígrados (hora)
DESCASC
Temp. mínima en grados centígrados (hora)
DESCASC
Temp. media en grados centígrados
DESCASC
Racha de viento máxima en m/sg (hora)
DESCASC
Velocidad máxima media en intervalos de 10 minutos(hora)
DESCASC
Precipitaciones diarias en mm
DESCASC
Precipitaciones de 00:00 a 06:00 en mm
DESCASC
Precipitaciones de 06:00 a 12:00 en mm
DESCASC
Precipitaciones de 12:00 a 18:00 en mm
DESCASC
Precipitaciones de 18:00 a 24:00 en mm
DESCASC
20-09-2020 23 (17:10) 15.1 (23:59) 19.1 9.72 (17:20) 5.83 (16:40) 2.2 0 0 0 2.2
19-09-2020 19.2 (19:00) 14.8 (04:10) 17 12.5 (02:00) 7.5 (02:00) 5.6 3.6 0 2 0
18-09-2020 23.7 (16:30) 15.1 (18:50) 19.4 11.67 (18:20) 6.67 (14:00) 8.6 1.4 0 0.6 6.6
17-09-2020 27.7 (17:40) 18.1 (00:00) 22.9 10.56 (23:00) 6.11 (23:00) 6.8 0 0.8 0 6
16-09-2020 32.5 (16:30) 15.7 (00:00) 24.1 8.06 (23:20) 4.72 (23:20) 0 0 0 0 0
15-09-2020 30.4 (17:40) 18.8 (00:00) 24.6 11.39 (03:50) 6.67 (04:10) 0 0 0 0 0
14-09-2020 32.4 (15:50) 16.6 (00:00) 24.5 12.78 (01:00) 8.06 (02:30) 0 0 0 0 0
13-09-2020 34.4 (15:30) 15.5 (00:00) 25 9.72 (23:59) 5.83 (23:59) 0 0 0 0 0
12-09-2020 33.9 (17:10) 14.1 (00:00) 24 5 (02:30) 3.61 (01:20) 0 0 0 0 0
11-09-2020 33.2 (17:30) 14.5 (00:00) 23.9 6.11 (16:00) 3.89 (06:10) 0 0 0 0 0
10-09-2020 31.1 (16:30) 15.1 (00:00) 23.1 7.5 (15:30) 4.17 (09:50) 0 0 0 0 0
09-09-2020 30.1 (17:10) 9.1 (00:00) 19.6 5 (17:50) 2.22 (14:10) 0 0 0 0 0
08-09-2020 28.4 (17:20) 10.4 (00:00) 19.4 10.28 (00:30) 6.67 (02:20) 0 0 0 0 0
07-09-2020 27.4 (18:00) 13.3 (08:00) 20.3 12.78 (10:10) 9.17 (10:20) 0 0 0 0 0
06-09-2020 34.3 (18:00) 13.7 (00:00) 24 9.72 (20:40) 5.83 (20:40) 0 0 0 0 0
05-09-2020 34.4 (17:40) 13.1 (00:00) 23.8 6.39 (22:40) 3.89 (23:59) 0 0 0 0 0
04-09-2020 34.2 (18:40) 14 (00:00) 24.1 6.39 (03:40) 3.33 (03:30) 0 0 0 0 0
03-09-2020 32.6 (18:20) 10.8 (00:00) 21.7 6.94 (16:00) 3.61 (16:20) 0 0 0 0 0
02-09-2020 30.5 (17:30) 12.5 (00:00) 21.5 7.22 (04:30) 4.72 (09:40) 0 0 0 0 0
01-09-2020 27.7 (18:40) 12 (00:00) 19.9 5.83 (15:50) 3.61 (15:10) 0 0 0 0 0
31-08-2020 26.3 (19:00) 8.4 (00:00) 17.3 7.22 (17:10) 3.89 (16:00) 0 0 0 0 0
30-08-2020 24.4 (18:00) 6.3 (00:00) 15.3 10 (16:30) 5.83 (00:20) 0 0 0 0 0
29-08-2020 24.1 (17:00) 13.5 (00:00) 18.8 12.78 (19:10) 7.5 (03:00) 0 0 0 0 0
28-08-2020 33.9 (16:00) 17.8 (00:00) 25.9 11.67 (15:50) 6.94 (16:10) 0 0 0 0 0
27-08-2020 38 (17:10) 15.8 (00:00) 26.9 7.22 (15:40) 4.17 (18:30) 0 0 0 0 0
26-08-2020 38 (16:40) 15.9 (00:00) 26.9 9.72 (15:50) 5 (15:20) 0 0 0 0 0
25-08-2020 37.1 (17:50) 17.3 (00:00) 27.2 8.33 (15:10) 4.72 (18:40) 0 0 0 0 0
24-08-2020 34.6 (16:40) 17.3 (00:00) 25.9 6.67 (01:30) 4.44 (01:10) 0 0 0 0 0
23-08-2020 34.7 (17:40) 16.6 (00:00) 25.7 6.67 (09:40) 4.72 (10:00) 0 0 0 0 0

Gráficas

Temp. máximas Temp. mínimas Temp. medias Precipitaciones Rachas de viento máximas Velocidades máximas media en intervalos de 10 minutos

Datos horarios

Fecha y hora oficial Temperatura (ºC) Velocidad del viento (km/h) Dirección del viento Racha (km/h) Dirección de racha Precipitación (mm) Presión (hPa) Tendencia (hPa) Humedad (%)
2020-09-21 23:00:00 15.4 2 Nordeste 5 Nordeste 0 -- -- 75
2020-09-21 22:00:00 16.4 0 Calma 9 Sur 0 -- -- 67
2020-09-21 21:00:00 19.1 4 Sudeste 8 Sudoeste 0 -- -- 63
2020-09-21 20:00:00 21.9 5 Sudoeste 17 Sudoeste 0 -- -- 46
2020-09-21 19:00:00 24.1 9 Sudoeste 18 Sudoeste 0 -- -- 40
2020-09-21 18:00:00 24.5 11 Sudoeste 22 Sudoeste 0 -- -- 41
2020-09-21 17:00:00 24.9 10 Sudoeste 25 Sudoeste 0 -- -- 40
2020-09-21 16:00:00 24.7 12 Sudoeste 19 Sur 0 -- -- 44
2020-09-21 15:00:00 24 5 Sur 21 Sudoeste 0 -- -- 50
2020-09-21 14:00:00 22.3 8 Sudoeste 22 Sudoeste 0 -- -- 56
2020-09-21 13:00:00 21.4 10 Sudoeste 19 Oeste 0 -- -- 59
2020-09-21 12:00:00 20 4 Oeste 11 Oeste 0 -- -- 72
2020-09-21 11:00:00 17.4 3 Oeste 7 Oeste 0 -- -- 87
2020-09-21 10:00:00 14.7 0 Calma 5 Nordeste 0 -- -- 97
2020-09-21 09:00:00 11.8 0 Calma -- -- 0 -- -- 97
2020-09-21 08:00:00 -- -- -- -- -- 0 -- -- --
2020-09-21 07:00:00 -- -- -- -- -- 0 -- -- --
2020-09-21 06:00:00 12 2 Sudeste 8 Nordeste 0 -- -- 95
2020-09-21 05:00:00 12.3 5 Nordeste 7 Nordeste 0 -- -- 96
2020-09-21 04:00:00 -- -- -- -- -- 0 -- -- --
2020-09-21 03:00:00 -- -- -- -- -- 0 -- -- --
2020-09-21 02:00:00 -- -- -- -- -- 0 -- -- --
2020-09-21 01:00:00 -- 0 Calma 9 Nordeste 0 -- -- --
2020-09-21 00:00:00 15.1 0 Calma 5 Noroeste 0 -- -- 92
2020-09-20 23:00:00 15.6 3 Nordeste 5 Nordeste 0 -- -- 91
2020-09-20 22:00:00 16.5 3 Sur 9 Sur 0 -- -- 87
2020-09-20 21:00:00 17.4 3 Sudeste 11 Sudoeste 0 -- -- 89
2020-09-20 20:00:00 17.7 8 Sur 20 Oeste 2 -- -- 88
2020-09-20 19:00:00 20.4 15 Oeste 30 Sudoeste 0.2 -- -- 72
2020-09-20 18:00:00 22.2 19 Sudoeste 35 Sudoeste 0 -- -- 58
2020-09-20 17:00:00 22.9 18 Sudoeste 33 Sudoeste 0 -- -- 58
2020-09-20 16:00:00 21.8 17 Sudoeste 28 Sudoeste 0 -- -- 62
2020-09-20 15:00:00 20.6 16 Sudoeste 26 Sudoeste 0 -- -- 67
2020-09-20 14:00:00 20.1 14 Sudoeste 25 Sudoeste 0 -- -- 70
2020-09-20 13:00:00 19.6 15 Sudoeste 24 Sudoeste 0 -- -- 73
2020-09-20 12:00:00 18.5 14 Sudoeste 29 Sur 0 -- -- 76
2020-09-20 11:00:00 17.9 12 Sudoeste 23 Sudoeste 0 -- -- 80
2020-09-20 10:00:00 17.1 13 Sudoeste 21 Sudoeste 0 -- -- 84
2020-09-20 09:00:00 16.3 9 Sudoeste 15 Sudoeste 0 -- -- 87
2020-09-20 08:00:00 16 6 Sudoeste 16 Sudoeste 0 -- -- 86
2020-09-20 07:00:00 16.5 9 Sudoeste 18 Sudoeste 0 -- -- 83
2020-09-20 06:00:00 16.8 8 Sudoeste 17 Sudoeste 0 -- -- 80
2020-09-20 05:00:00 17.1 7 Sudoeste 14 Sudoeste 0 -- -- 78
2020-09-20 04:00:00 17.3 9 Sudoeste 20 Sudoeste 0 -- -- 76
2020-09-20 03:00:00 17.5 8 Sudoeste 15 Sudoeste 0 -- -- 74
2020-09-20 02:00:00 17.2 6 Sudoeste 10 Sur 0 -- -- 75
2020-09-20 01:00:00 17.4 3 Sur 13 Sudoeste 0 -- -- 74
2020-09-20 00:00:00 17.6 7 Sudoeste 18 Sudoeste 0 -- -- 73
2020-09-19 23:00:00 17.4 9 Sudoeste 15 Sudoeste 0 -- -- 74
2020-09-19 22:00:00 17.2 9 Sudoeste 17 Sudoeste 0 -- -- 76
2020-09-19 21:00:00 17.5 6 Sudoeste 24 Sudoeste 0 -- -- 76
2020-09-19 20:00:00 18.6 12 Sudoeste 23 Sudoeste 0 -- -- 73
2020-09-19 19:00:00 19.2 15 Oeste 29 Oeste 0 -- -- 72
2020-09-19 18:00:00 17.5 6 Sudoeste 11 Sur 0.2 -- -- 87
2020-09-19 17:00:00 16.8 4 Sur 40 Oeste 1.4 -- -- 88
2020-09-19 16:00:00 19 17 Sudoeste 31 Sudoeste 0 -- -- 70
2020-09-19 15:00:00 18.3 16 Sudoeste 26 Sudoeste 0.4 -- -- 76
2020-09-19 14:00:00 18 12 Sudoeste 34 Sudoeste 0 -- -- 76
2020-09-19 13:00:00 16.7 9 Sudoeste 36 Sudoeste 0 -- -- 82
2020-09-19 12:00:00 17.9 21 Sudoeste 40 Sudoeste 0 -- -- 76
2020-09-19 11:00:00 17.6 18 Sudoeste 40 Sudoeste 0 -- -- 74
2020-09-19 10:00:00 16.8 14 Sur 30 Sur 0 -- -- 80
2020-09-19 09:00:00 16.1 15 Sur 31 Sudoeste 0 -- -- 81
2020-09-19 08:00:00 15.7 14 Sur 25 Sur 0 -- -- 85
2020-09-19 07:00:00 15.3 12 Sur 23 Sur 0 -- -- 88
2020-09-19 06:00:00 15.4 14 Sur 28 Sur 0 -- -- 88
2020-09-19 05:00:00 15.1 8 Sur 16 Sudoeste 0 -- -- 91
2020-09-19 04:00:00 15 11 Sudoeste 40 Sudoeste 1 -- -- 91
2020-09-19 03:00:00 15.3 9 Oeste 42 Sur 2.6 -- -- 88
2020-09-19 02:00:00 17.2 27 Sur 45 Sur 0 -- -- 80
2020-09-19 01:00:00 17.6 24 Sur 37 Sur 0 -- -- 78
2020-09-19 00:00:00 17.1 13 Sur 23 Sur 0 -- -- 80
2020-09-18 23:00:00 16.6 11 Sur 23 Sudeste 0 -- -- 82
2020-09-18 22:00:00 15.8 11 Sur 19 Sur 0 -- -- 90
2020-09-18 21:00:00 15.2 4 Norte 6 Norte 0 -- -- 90
2020-09-18 20:00:00 16 2 Nordeste 8 Nordeste 0 -- -- 86
2020-09-18 19:00:00 15.4 0 Calma 42 Sudoeste 6.6 -- -- 89
2020-09-18 18:00:00 19.1 9 Oeste 25 Sur 0.6 -- -- 75
2020-09-18 17:00:00 22.7 9 Sur 24 Oeste 0 -- -- 52
2020-09-18 16:00:00 22.3 10 Sudoeste 30 Sudeste 0 -- -- 60
2020-09-18 15:00:00 21.4 17 Sur 35 Sudeste 0 -- -- 63
2020-09-18 14:00:00 19.4 24 Sudeste 37 Sudeste 0 -- -- 72
2020-09-18 13:00:00 21.6 12 Sur 22 Sur 0 -- -- 63
2020-09-18 12:00:00 20.9 17 Sur 32 Sur 0 -- -- 65
2020-09-18 11:00:00 20.5 21 Sur 34 Sur 0 -- -- 66
2020-09-18 10:00:00 19.5 18 Sur 37 Sur 0 -- -- 66
2020-09-18 09:00:00 19 21 Sur 37 Sur 0 -- -- 66
2020-09-18 08:00:00 18.8 17 Sur 33 Sur 0 -- -- 68
2020-09-18 07:00:00 19 18 Sur 39 Sur 0 -- -- 69
2020-09-18 06:00:00 19.1 20 Sur 37 Sur 0 -- -- 70
2020-09-18 05:00:00 19.5 22 Sur 36 Sur 0 -- -- 75
2020-09-18 04:00:00 19.4 19 Sur 33 Sur 0 -- -- 79
2020-09-18 03:00:00 18.6 2 Este 9 Norte 0 -- -- 90
2020-09-18 02:00:00 18.5 3 Noroeste 15 Este 0.4 -- -- 91
2020-09-18 01:00:00 18.2 6 Nordeste 18 Nordeste 1 -- -- 93
2020-09-18 00:00:00 18.3 5 Este 31 Sur 3.4 -- -- 91
2020-09-17 23:00:00 19.9 22 Sur 38 Sur 1.6 -- -- 80
2020-09-17 22:00:00 20.9 3 Norte 18 Nordeste 0 -- -- 71
2020-09-17 21:00:00 21 13 Nordeste 17 Nordeste 0 -- -- 71
2020-09-17 20:00:00 22.3 4 Nordeste 9 Nordeste 0 -- -- 71
2020-09-17 19:00:00 22.8 0 Calma 32 Oeste 1 -- -- 75
2020-09-17 18:00:00 27.3 10 Sur 26 Sur 0 -- -- 46
2020-09-17 17:00:00 26.8 14 Sur 31 Sur 0 -- -- 48
2020-09-17 16:00:00 26.2 19 Sur 34 Sudoeste 0 -- -- 49
2020-09-17 15:00:00 26.5 8 Sur 30 Sur 0 -- -- 47
2020-09-17 14:00:00 26.4 14 Sudoeste 25 Sudoeste 0 -- -- 49
2020-09-17 13:00:00 25.2 10 Sudoeste 19 Sur 0 -- -- 55
2020-09-17 12:00:00 24.2 7 Sur 17 Sur 0.2 -- -- 59
2020-09-17 11:00:00 21.8 7 Nordeste 13 Nordeste 0 -- -- 71
2020-09-17 10:00:00 19.4 4 Nordeste 8 Nordeste 0 -- -- 85
2020-09-17 09:00:00 18.5 3 Sudoeste 11 Nordeste 0.4 -- -- 88
2020-09-17 08:00:00 18.3 4 Sudoeste 18 Sudoeste 0.2 -- -- 85
2020-09-17 07:00:00 20 4 Sudoeste 17 Sur 0 -- -- 72
2020-09-17 06:00:00 19.7 3 Sur 9 Sudeste 0 -- -- 70
2020-09-17 05:00:00 20.2 0 Calma 7 Sudoeste 0 -- -- 68
2020-09-17 04:00:00 20.9 3 Sudoeste 20 Oeste 0 -- -- 65
2020-09-17 03:00:00 21.3 10 Oeste 23 Oeste 0 -- -- 64
2020-09-17 02:00:00 22.4 4 Nordeste 15 Nordeste 0 -- -- 58
2020-09-17 01:00:00 23.3 8 Norte 18 Oeste 0 -- -- 51
2020-09-17 00:00:00 24.8 5 Oeste 29 Sudoeste 0 -- -- 45
2020-09-16 23:00:00 24.7 2 Norte 10 Nordeste 0 -- -- 39
2020-09-16 22:00:00 24.8 5 Nordeste 7 Nordeste 0 -- -- 40
2020-09-16 21:00:00 26.5 0 Calma 8 Sudoeste 0 -- -- 35
2020-09-16 20:00:00 29.5 6 Sur 14 Sur 0 -- -- 31
2020-09-16 19:00:00 31.6 8 Sudoeste 21 Sudoeste 0 -- -- 29
2020-09-16 18:00:00 32.3 12 Sur 24 Sur 0 -- -- 28
2020-09-16 17:00:00 32.2 13 Sur 24 Sudeste 0 -- -- 28
2020-09-16 16:00:00 32.2 8 Sudeste 27 Sur 0 -- -- 30
2020-09-16 15:00:00 30.8 7 Sudoeste 18 Oeste 0 -- -- 34
2020-09-16 14:00:00 30 4 Sur 10 Sudeste 0 -- -- 37
2020-09-16 13:00:00 28 4 Sudeste 11 Este 0 -- -- 41
2020-09-16 12:00:00 27 5 Nordeste 13 Este 0 -- -- 44
2020-09-16 11:00:00 23.5 7 Este 13 Este 0 -- -- 54
2020-09-16 10:00:00 19.5 6 Nordeste 16 Nordeste 0 -- -- 65
2020-09-16 09:00:00 16.6 7 Nordeste 12 Nordeste 0 -- -- 73
2020-09-16 08:00:00 15.7 5 Este 14 Nordeste 0 -- -- 76
2020-09-16 07:00:00 16.3 8 Nordeste 13 Nordeste 0 -- -- 74
2020-09-16 06:00:00 16.7 9 Nordeste 15 Nordeste 0 -- -- 72
2020-09-16 05:00:00 16.9 8 Nordeste 13 Nordeste 0 -- -- 72
2020-09-16 04:00:00 16.9 7 Nordeste 15 Nordeste 0 -- -- 72
2020-09-16 03:00:00 17.5 8 Nordeste 13 Este 0 -- -- 69
2020-09-16 02:00:00 18 6 Este 14 Nordeste 0 -- -- 67
2020-09-16 01:00:00 18.1 6 Nordeste 9 Nordeste 0 -- -- 65
2020-09-16 00:00:00 18.8 6 Nordeste 8 Nordeste 0 -- -- 57
2020-09-15 23:00:00 20.4 5 Nordeste 8 Nordeste 0 -- -- 53
2020-09-15 22:00:00 22.3 4 Nordeste 5 Este 0 -- -- 48
2020-09-15 21:00:00 24.8 5 Este 9 Noroeste 0 -- -- 44
2020-09-15 20:00:00 28.1 4 Noroeste 16 Oeste 0 -- -- 37
2020-09-15 19:00:00 30 5 Oeste 20 Oeste 0 -- -- 34
2020-09-15 18:00:00 30 18 Oeste 31 Oeste 0 -- -- 34
2020-09-15 17:00:00 30.2 15 Sudoeste 28 Oeste 0 -- -- 34
2020-09-15 16:00:00 29.1 12 Oeste 26 Sudoeste 0 -- -- 39
2020-09-15 15:00:00 28.1 10 Oeste 23 Oeste 0 -- -- 41
2020-09-15 14:00:00 28 10 Oeste 21 Sudoeste 0 -- -- 43
2020-09-15 13:00:00 27.2 5 Sudoeste 16 Oeste 0 -- -- 45
2020-09-15 12:00:00 26.2 4 Sudoeste 14 Nordeste 0 -- -- 48
2020-09-15 11:00:00 23.6 10 Nordeste 17 Nordeste 0 -- -- 60
2020-09-15 10:00:00 21.6 10 Nordeste 18 Nordeste 0 -- -- 64
2020-09-15 09:00:00 20.1 12 Nordeste 17 Nordeste 0 -- -- 71
2020-09-15 08:00:00 19.4 6 Nordeste 12 Noroeste 0 -- -- 69
2020-09-15 07:00:00 20.5 5 Sudeste 14 Oeste 0 -- -- 65
2020-09-15 06:00:00 21.1 4 Oeste 28 Sur 0 -- -- 61
2020-09-15 05:00:00 21.3 17 Sur 37 Sur 0 -- -- 61
2020-09-15 04:00:00 22 24 Sur 41 Sudeste 0 -- -- 60
2020-09-15 03:00:00 23 19 Sur 31 Sur 0 -- -- 54
2020-09-15 02:00:00 23.9 18 Sur 33 Sudeste 0 -- -- 49
2020-09-15 01:00:00 24.8 22 Sur 34 Sur 0 -- -- 46
2020-09-15 00:00:00 25.5 17 Sur 30 Sur 0 -- -- 42
2020-09-14 23:00:00 26.4 18 Sudeste 44 Sudeste 0 -- -- 38
2020-09-14 22:00:00 27.4 23 Sudeste 37 Sudeste 0 -- -- 34
2020-09-14 21:00:00 27.3 8 Sur 21 Sur 0 -- -- 33
2020-09-14 20:00:00 29.5 8 Sudeste 22 Sudeste 0 -- -- 30
2020-09-14 19:00:00 30.8 13 Sur 29 Sudeste 0 -- -- 29
2020-09-14 18:00:00 30.8 13 Sur 27 Sudeste 0 -- -- 29
2020-09-14 17:00:00 32 12 Sudeste 26 Sudeste 0 -- -- 28
2020-09-14 16:00:00 31.6 14 Sudeste 26 Sur 0 -- -- 29
2020-09-14 15:00:00 30.4 15 Sur 23 Sur 0 -- -- 30
2020-09-14 14:00:00 29.1 12 Sur 23 Sur 0 -- -- 34
2020-09-14 13:00:00 28.7 11 Sudeste 23 Sur 0 -- -- 36
2020-09-14 12:00:00 26.5 6 Sur 15 Sudoeste 0 -- -- 42
2020-09-14 11:00:00 23.4 7 Nordeste 16 Nordeste 0 -- -- 47
2020-09-14 10:00:00 20.6 8 Este 14 Nordeste 0 -- -- 54
2020-09-14 09:00:00 17.5 7 Este 16 Este 0 -- -- 61
2020-09-14 08:00:00 16.7 8 Este 15 Este 0 -- -- 63
2020-09-14 07:00:00 18.5 9 Este 14 Nordeste 0 -- -- 61
2020-09-14 06:00:00 19.7 6 Nordeste 15 Este 0 -- -- 57
2020-09-14 05:00:00 20.8 8 Nordeste 14 Nordeste 0 -- -- 55
2020-09-14 04:00:00 22.8 4 Norte 35 Sudeste 0 -- -- 50
2020-09-14 03:00:00 23.6 26 Sudeste 43 Sudeste 0 -- -- 47
2020-09-14 02:00:00 24.4 25 Sudeste 45 Sudeste 0 -- -- 44
2020-09-14 01:00:00 25.1 24 Sudeste 46 Sur 0 -- -- 40
2020-09-14 00:00:00 25.8 21 Sudeste 35 Sudeste 0 -- -- 37
2020-09-13 23:00:00 26.4 17 Sudeste 24 Sudeste 0 -- -- 35
2020-09-13 22:00:00 24.9 5 Sur 10 Sur 0 -- -- 34
2020-09-13 21:00:00 27.2 7 Sur 10 Sur 0 -- -- 31
2020-09-13 20:00:00 30.6 8 Sudeste 24 Sur 0 -- -- 27
2020-09-13 19:00:00 32.7 15 Sur 27 Sudeste 0 -- -- 25
2020-09-13 18:00:00 32.7 10 Sur 29 Sudeste 0 -- -- 25
2020-09-13 17:00:00 32.8 12 Sur 26 Sudoeste 0 -- -- 23
2020-09-13 16:00:00 34 11 Sur 26 Sur 0 -- -- 23
2020-09-13 15:00:00 33.6 14 Sudeste 28 Sur 0 -- -- 24
2020-09-13 14:00:00 32.2 13 Sur 26 Sur 0 -- -- 25
2020-09-13 13:00:00 31.1 13 Sur 20 Sudeste 0 -- -- 27
2020-09-13 12:00:00 28.1 9 Sudeste 21 Nordeste 0 -- -- 35
2020-09-13 11:00:00 25.3 11 Nordeste 16 Nordeste 0 -- -- 42
2020-09-13 10:00:00 20.9 10 Nordeste 15 Nordeste 0 -- -- 53
2020-09-13 09:00:00 17.2 10 Nordeste 17 Nordeste 0 -- -- 62
2020-09-13 08:00:00 15.6 8 Nordeste 13 Nordeste 0 -- -- 67
2020-09-13 07:00:00 16.2 9 Este 13 Este 0 -- -- 64
2020-09-13 06:00:00 17.2 9 Nordeste 13 Nordeste 0 -- -- 61
2020-09-13 05:00:00 17.4 5 Este 9 Nordeste 0 -- -- 61
2020-09-13 04:00:00 18.5 3 Oeste 12 Nordeste 0 -- -- 55
2020-09-13 03:00:00 20.7 9 Este 15 Nordeste 0 -- -- 48
2020-09-13 02:00:00 21.4 8 Nordeste 17 Este 0 -- -- 45
2020-09-13 01:00:00 22.7 9 Nordeste 23 Norte 0 -- -- 39
2020-09-13 00:00:00 20.8 7 Nordeste 16 Nordeste 0 -- -- 40
2020-09-12 23:00:00 20.6 7 Nordeste 11 Nordeste 0 -- -- 41
2020-09-12 22:00:00 23 0 Calma 6 Nordeste 0 -- -- 36
2020-09-12 21:00:00 26 2 Este 5 Sur 0 -- -- 33
2020-09-12 20:00:00 30.3 4 Norte 13 Norte 0 -- -- 26
2020-09-12 19:00:00 33.3 3 Sur 12 Sudoeste 0 -- -- 23
2020-09-12 18:00:00 33.5 5 Oeste 16 Sudoeste 0 -- -- 23
2020-09-12 17:00:00 33.5 10 Sudoeste 18 Sudoeste 0 -- -- 23
2020-09-12 16:00:00 33.2 5 Oeste 15 Oeste 0 -- -- 24
2020-09-12 15:00:00 32.5 9 Sudoeste 17 Sudoeste 0 -- -- 26
2020-09-12 14:00:00 30.1 6 Noroeste 13 Nordeste 0 -- -- 30
2020-09-12 13:00:00 28.8 6 Oeste 13 Norte 0 -- -- 34
2020-09-12 12:00:00 26.8 6 Norte 15 Norte 0 -- -- 38
2020-09-12 11:00:00 24.1 7 Este 14 Nordeste 0 -- -- 44
2020-09-12 10:00:00 20.1 8 Este 15 Nordeste 0 -- -- 52
2020-09-12 09:00:00 16.4 9 Nordeste 12 Nordeste 0 -- -- 62
2020-09-12 08:00:00 14.2 6 Nordeste 10 Nordeste 0 -- -- 66
2020-09-12 07:00:00 14.6 7 Nordeste 12 Nordeste 0 -- -- 66
2020-09-12 06:00:00 14.7 3 Nordeste 8 Nordeste 0 -- -- 62
2020-09-12 05:00:00 15.9 2 Este 8 Nordeste 0 -- -- 58
2020-09-12 04:00:00 17.7 6 Este 14 Nordeste 0 -- -- 54
2020-09-12 03:00:00 18.6 8 Nordeste 18 Este 0 -- -- 49
2020-09-12 02:00:00 20.1 10 Nordeste 18 Nordeste 0 -- -- 45
2020-09-12 01:00:00 19.3 8 Este 12 Este 0 -- -- 39
2020-09-12 00:00:00 19.1 8 Nordeste 11 Nordeste 0 -- -- 41
2020-09-11 23:00:00 20.6 0 Calma 14 Norte 0 -- -- 38
2020-09-11 22:00:00 22.4 0 Calma 5 Sur 0 -- -- 35
2020-09-11 21:00:00 26 4 Sur 8 Sur 0 -- -- 30
2020-09-11 20:00:00 30.3 6 Sudoeste 11 Sudoeste 0 -- -- 25
2020-09-11 19:00:00 32.1 4 Sur 13 Sudoeste 0 -- -- 22
2020-09-11 18:00:00 32.6 8 Sudoeste 19 Sudoeste 0 -- -- 21
2020-09-11 17:00:00 32.5 8 Sur 18 Norte 0 -- -- 22
2020-09-11 16:00:00 32.4 8 Sudoeste 22 Sudoeste 0 -- -- 24
2020-09-11 15:00:00 31.7 8 Sur 18 Sur 0 -- -- 25
2020-09-11 14:00:00 29.9 8 Noroeste 18 Sudoeste 0 -- -- 26
2020-09-11 13:00:00 28.1 3 Noroeste 10 Oeste 0 -- -- 34
2020-09-11 12:00:00 25.7 3 Sudeste 12 Este 0 -- -- 37
2020-09-11 11:00:00 22.3 7 Este 14 Este 0 -- -- 42
2020-09-11 10:00:00 18.4 8 Nordeste 14 Nordeste 0 -- -- 51
2020-09-11 09:00:00 15.5 10 Nordeste 17 Nordeste 0 -- -- 58
2020-09-11 08:00:00 14.5 11 Nordeste 17 Nordeste 0 -- -- 60
2020-09-11 07:00:00 15.1 11 Nordeste 22 Este 0 -- -- 58
2020-09-11 06:00:00 15.7 14 Nordeste 20 Este 0 -- -- 56
2020-09-11 05:00:00 16 13 Nordeste 17 Nordeste 0 -- -- 55
2020-09-11 04:00:00 16.2 7 Nordeste 10 Nordeste 0 -- -- 54
2020-09-11 03:00:00 17.9 10 Nordeste 15 Este 0 -- -- 49
2020-09-11 02:00:00 19.2 10 Nordeste 14 Nordeste 0 -- -- 45
2020-09-11 01:00:00 19.9 10 Nordeste 18 Nordeste 0 -- -- 43
2020-09-11 00:00:00 21.1 13 Nordeste 19 Nordeste 0 -- -- 40
2020-09-10 23:00:00 20.9 8 Nordeste 10 Nordeste 0 -- -- 41
2020-09-10 22:00:00 23.2 4 Nordeste 7 Nordeste 0 -- -- 38
2020-09-10 21:00:00 26.5 0 Calma 10 Este 0 -- -- 33
2020-09-10 20:00:00 29 7 Norte 16 Norte 0 -- -- 28
2020-09-10 19:00:00 30 10 Norte 20 Nordeste 0 -- -- 27
2020-09-10 18:00:00 31.1 6 Nordeste 22 Nordeste 0 -- -- 25
2020-09-10 17:00:00 31 12 Norte 24 Nordeste 0 -- -- 26
2020-09-10 16:00:00 30.5 12 Norte 27 Este 0 -- -- 28
2020-09-10 15:00:00 30 11 Nordeste 23 Noroeste 0 -- -- 29
2020-09-10 14:00:00 28.4 10 Nordeste 21 Norte 0 -- -- 31
2020-09-10 13:00:00 27.2 10 Nordeste 21 Nordeste 0 -- -- 35
2020-09-10 12:00:00 24.8 6 Norte 16 Nordeste 0 -- -- 41
2020-09-10 11:00:00 22.7 9 Nordeste 22 Nordeste 0 -- -- 46
2020-09-10 10:00:00 20.1 15 Nordeste 22 Nordeste 0 -- -- 52
2020-09-10 09:00:00 16.9 6 Nordeste 16 Nordeste 0 -- -- 62
2020-09-10 08:00:00 15.3 8 Nordeste 19 Nordeste 0 -- -- 66
2020-09-10 07:00:00 15.2 12 Nordeste 15 Nordeste 0 -- -- 68
2020-09-10 06:00:00 15.7 10 Nordeste 14 Nordeste 0 -- -- 65
2020-09-10 05:00:00 16.3 9 Nordeste 15 Nordeste 0 -- -- 62
2020-09-10 04:00:00 17.3 10 Nordeste 17 Nordeste 0 -- -- 57
2020-09-10 03:00:00 18 10 Nordeste 15 Nordeste 0 -- -- 54
2020-09-10 02:00:00 17.2 9 Nordeste 12 Este 0 -- -- 52
2020-09-10 01:00:00 17.3 6 Nordeste 15 Nordeste 0 -- -- 45
2020-09-10 00:00:00 17.1 3 Este 6 Este 0 -- -- 47
2020-09-09 23:00:00 19 3 Nordeste 4 Nordeste 0 -- -- 43
2020-09-09 22:00:00 20.5 0 Calma 4 Sudoeste 0 -- -- 38
2020-09-09 21:00:00 24.3 3 Sudoeste 8 Sudoeste 0 -- -- 33
2020-09-09 20:00:00 28.2 5 Sudoeste 12 Sudoeste 0 -- -- 27
2020-09-09 19:00:00 29.5 7 Sudoeste 13 Oeste 0 -- -- 25
2020-09-09 18:00:00 29.8 3 Sur 18 Sudoeste 0 -- -- 25
2020-09-09 17:00:00 29.8 5 Sudeste 15 Noroeste 0 -- -- 25
2020-09-09 16:00:00 28.9 6 Sudoeste 17 Oeste 0 -- -- 26
2020-09-09 15:00:00 27.7 5 Noroeste 16 Oeste 0 -- -- 29
2020-09-09 14:00:00 26.5 5 Sudeste 15 Norte 0 -- -- 30
2020-09-09 13:00:00 25 6 Sudoeste 13 Sudoeste 0 -- -- 33
2020-09-09 12:00:00 22.5 4 Norte 10 Noroeste 0 -- -- 38
2020-09-09 11:00:00 19.9 5 Nordeste 11 Nordeste 0 -- -- 43
2020-09-09 10:00:00 14.8 7 Nordeste 10 Este 0 -- -- 56
2020-09-09 09:00:00 10.5 4 Este 11 Este 0 -- -- 68
2020-09-09 08:00:00 9.3 7 Nordeste 9 Nordeste 0 -- -- 70
2020-09-09 07:00:00 9.6 5 Nordeste 6 Este 0 -- -- 66
2020-09-09 06:00:00 11.1 4 Este 8 Nordeste 0 -- -- 62
2020-09-09 05:00:00 12.3 3 Este 8 Nordeste 0 -- -- 58
2020-09-09 04:00:00 13.9 5 Nordeste 12 Nordeste 0 -- -- 55
2020-09-09 03:00:00 13.8 4 Nordeste 7 Este 0 -- -- 54
2020-09-09 02:00:00 14.6 6 Nordeste 9 Nordeste 0 -- -- 50
2020-09-09 01:00:00 15.4 3 Este 9 Nordeste 0 -- -- 47
2020-09-09 00:00:00 16.5 3 Sudeste 14 Nordeste 0 -- -- 45
2020-09-08 23:00:00 17 7 Nordeste 13 Nordeste 0 -- -- 46
2020-09-08 22:00:00 19 3 Sudeste 4 Sur 0 -- -- 40
2020-09-08 21:00:00 22.6 0 Calma 9 Sudoeste 0 -- -- 34
2020-09-08 20:00:00 26.3 5 Sur 18 Sudoeste 0 -- -- 28
2020-09-08 19:00:00 27.9 7 Sudoeste 17 Este 0 -- -- 25
2020-09-08 18:00:00 28.3 7 Sudeste 21 Sudeste 0 -- -- 24
2020-09-08 17:00:00 28.3 12 Este 27 Sudeste 0 -- -- 24
2020-09-08 16:00:00 28.1 10 Este 22 Nordeste 0 -- -- 22
2020-09-08 15:00:00 25.9 9 Norte 20 Nordeste 0 -- -- 27
2020-09-08 14:00:00 24.4 8 Nordeste 24 Norte 0 -- -- 31
2020-09-08 13:00:00 22.6 10 Norte 21 Norte 0 -- -- 34
2020-09-08 12:00:00 20.4 9 Norte 17 Nordeste 0 -- -- 40
2020-09-08 11:00:00 17.8 10 Nordeste 22 Nordeste 0 -- -- 48
2020-09-08 10:00:00 14.9 15 Nordeste 23 Nordeste 0 -- -- 55
2020-09-08 09:00:00 11.9 13 Nordeste 23 Nordeste 0 -- -- 66
2020-09-08 08:00:00 10.5 10 Nordeste 16 Este 0 -- -- 69
2020-09-08 07:00:00 10.7 9 Nordeste 17 Nordeste 0 -- -- 67
2020-09-08 06:00:00 11.2 8 Nordeste 15 Nordeste 0 -- -- 64
2020-09-08 05:00:00 12 9 Nordeste 17 Nordeste 0 -- -- 60
2020-09-08 04:00:00 12.6 9 Nordeste 21 Nordeste 0 -- -- 57
2020-09-08 03:00:00 14.1 15 Nordeste 35 Este 0 -- -- 50
2020-09-08 02:00:00 15.6 19 Este 31 Nordeste 0 -- -- 45
2020-09-08 01:00:00 16.8 16 Este 37 Nordeste 0 -- -- 39
2020-09-08 00:00:00 17.9 16 Nordeste 26 Nordeste 0 -- -- 38
2020-09-07 23:00:00 19.1 12 Nordeste 21 Nordeste 0 -- -- 35
2020-09-07 22:00:00 20.9 14 Nordeste 24 Nordeste 0 -- -- 30
2020-09-07 21:00:00 22.4 11 Nordeste 21 Este 0 -- -- 28
2020-09-07 20:00:00 25.4 12 Nordeste 30 Este 0 -- -- 25
2020-09-07 19:00:00 26.6 17 Nordeste 31 Nordeste 0 -- -- 23
2020-09-07 18:00:00 27.4 19 Este 35 Norte 0 -- -- 21
2020-09-07 17:00:00 26.9 20 Nordeste 36 Nordeste 0 -- -- 22
2020-09-07 16:00:00 26.7 22 Nordeste 39 Nordeste 0 -- -- 22
2020-09-07 15:00:00 25.6 21 Nordeste 39 Norte 0 -- -- 28
2020-09-07 14:00:00 23.8 22 Nordeste 36 Nordeste 0 -- -- 32
2020-09-07 13:00:00 22.8 23 Nordeste 42 Nordeste 0 -- -- 35
2020-09-07 12:00:00 21.3 28 Nordeste 43 Norte 0 -- -- 37
2020-09-07 11:00:00 19.4 27 Nordeste 46 Nordeste 0 -- -- 42
2020-09-07 10:00:00 17.3 30 Nordeste 44 Nordeste 0 -- -- 47
2020-09-07 09:00:00 14.9 26 Nordeste 42 Nordeste 0 -- -- 57
2020-09-07 08:00:00 13.3 15 Nordeste 28 Nordeste 0 -- -- 63
2020-09-07 07:00:00 13.7 15 Nordeste 32 Nordeste 0 -- -- 62
2020-09-07 06:00:00 14.7 19 Nordeste 29 Nordeste 0 -- -- 59
2020-09-07 05:00:00 15.1 18 Nordeste 37 Nordeste 0 -- -- 58
2020-09-07 04:00:00 16.3 25 Nordeste 38 Nordeste 0 -- -- 55
2020-09-07 03:00:00 16.4 15 Nordeste 28 Nordeste 0 -- -- 56
2020-09-07 02:00:00 17.8 17 Nordeste 32 Nordeste 0 -- -- 53
2020-09-07 01:00:00 20 22 Nordeste 33 Nordeste 0 -- -- 49
2020-09-07 00:00:00 22.8 16 Nordeste 32 Nordeste 0 -- -- 46
2020-09-06 23:00:00 25.7 16 Nordeste 22 Nordeste 0 -- -- 37
2020-09-06 22:00:00 26.8 8 Nordeste 28 Noroeste 0 -- -- 31
2020-09-06 21:00:00 28.9 14 Norte 35 Norte 0 -- -- 30
2020-09-06 20:00:00 31.4 5 Sudoeste 18 Sudoeste 0 -- -- 23
2020-09-06 19:00:00 33.4 13 Oeste 23 Oeste 0 -- -- 22
2020-09-06 18:00:00 34.3 6 Sudoeste 25 Oeste 0 -- -- 21
2020-09-06 17:00:00 33.7 12 Noroeste 25 Oeste 0 -- -- 21
2020-09-06 16:00:00 33.9 11 Sudoeste 27 Oeste 0 -- -- 21
2020-09-06 15:00:00 32.9 8 Noroeste 18 Oeste 0 -- -- 22
2020-09-06 14:00:00 32.1 10 Sudoeste 20 Sudeste 0 -- -- 22
2020-09-06 13:00:00 29.5 7 Oeste 16 Noroeste 0 -- -- 28
2020-09-06 12:00:00 27.9 6 Nordeste 13 Nordeste 0 -- -- 31
2020-09-06 11:00:00 24.7 8 Nordeste 14 Este 0 -- -- 41
2020-09-06 10:00:00 20.6 10 Nordeste 17 Nordeste 0 -- -- 55
2020-09-06 09:00:00 16.9 10 Nordeste 14 Nordeste 0 -- -- 70
2020-09-06 08:00:00 14.2 7 Nordeste 10 Nordeste 0 -- -- 74
2020-09-06 07:00:00 14 5 Nordeste 8 Nordeste 0 -- -- 63
2020-09-06 06:00:00 15.5 4 Nordeste 6 Nordeste 0 -- -- 61
2020-09-06 05:00:00 17 2 Este 8 Nordeste 0 -- -- 61
2020-09-06 04:00:00 19.1 3 Sudeste 11 Nordeste 0 -- -- 54
2020-09-06 03:00:00 22.4 5 Este 19 Este 0 -- -- 40
2020-09-06 02:00:00 23.7 6 Sudoeste 18 Sudoeste 0 -- -- 36
2020-09-06 01:00:00 24.7 4 Sudeste 28 Este 0 -- -- 41
2020-09-06 00:00:00 25.2 14 Nordeste 22 Nordeste 0 -- -- 41
2020-09-05 23:00:00 23.2 5 Nordeste 23 Nordeste 0 -- -- 40
2020-09-05 22:00:00 24.7 2 Sudeste 4 Sur 0 -- -- 40
2020-09-05 21:00:00 28.8 4 Sur 10 Sudoeste 0 -- -- 34
2020-09-05 20:00:00 33 6 Sudoeste 21 Sudoeste 0 -- -- 26
2020-09-05 19:00:00 34 4 Oeste 16 Norte 0 -- -- 25
2020-09-05 18:00:00 34.2 6 Oeste 15 Oeste 0 -- -- 26
2020-09-05 17:00:00 34 9 Noroeste 18 Noroeste 0 -- -- 26
2020-09-05 16:00:00 33.4 6 Oeste 19 Oeste 0 -- -- 28
2020-09-05 15:00:00 32.5 7 Sudoeste 15 Sudoeste 0 -- -- 30
2020-09-05 14:00:00 30.4 6 Noroeste 15 Noroeste 0 -- -- 33
2020-09-05 13:00:00 29.1 4 Sur 11 Norte 0 -- -- 37
2020-09-05 12:00:00 26.7 5 Nordeste 13 Norte 0 -- -- 43
2020-09-05 11:00:00 23.8 5 Norte 10 Oeste 0 -- -- 49
2020-09-05 10:00:00 19.7 5 Nordeste 12 Este 0 -- -- 52
2020-09-05 09:00:00 15.5 9 Nordeste 12 Nordeste 0 -- -- 59
2020-09-05 08:00:00 13.1 4 Este 8 Este 0 -- -- 64
2020-09-05 07:00:00 14.2 6 Nordeste 10 Nordeste 0 -- -- 61
2020-09-05 06:00:00 14.8 5 Este 9 Este 0 -- -- 59
2020-09-05 05:00:00 16 9 Nordeste 13 Nordeste 0 -- -- 55
2020-09-05 04:00:00 17.3 6 Nordeste 10 Nordeste 0 -- -- 50
2020-09-05 03:00:00 19.2 2 Nordeste 7 Sudoeste 0 -- -- 47
2020-09-05 02:00:00 21.3 5 Oeste 15 Sudeste 0 -- -- 41
2020-09-05 01:00:00 22.7 6 Noroeste 12 Noroeste 0 -- -- 35
2020-09-05 00:00:00 21.5 3 Noroeste 6 Noroeste 0 -- -- 34
2020-09-04 23:00:00 23.1 3 Noroeste 10 Sur 0 -- -- 32
2020-09-04 22:00:00 24.7 4 Sudoeste 12 Sur 0 -- -- 27
2020-09-04 21:00:00 28 6 Sur 10 Oeste 0 -- -- 28
2020-09-04 20:00:00 32.3 7 Sudoeste 12 Sudoeste 0 -- -- 24
2020-09-04 19:00:00 33.7 6 Sudoeste 13 Sur 0 -- -- 23
2020-09-04 18:00:00 33.7 8 Sudoeste 17 Sur 0 -- -- 23
2020-09-04 17:00:00 34 4 Sur 20 Oeste 0 -- -- 24
2020-09-04 16:00:00 32.5 5 Noroeste 17 Noroeste 0 -- -- 28
2020-09-04 15:00:00 31.6 9 Noroeste 21 Oeste 0 -- -- 29
2020-09-04 14:00:00 30.7 4 Sudoeste 16 Sudoeste 0 -- -- 32
2020-09-04 13:00:00 29.6 7 Sudeste 14 Sudeste 0 -- -- 33
2020-09-04 12:00:00 26.8 6 Nordeste 13 Este 0 -- -- 41
2020-09-04 11:00:00 24.4 4 Nordeste 8 Este 0 -- -- 47
2020-09-04 10:00:00 20.4 6 Nordeste 12 Nordeste 0 -- -- 53
2020-09-04 09:00:00 16.2 6 Nordeste 13 Este 0 -- -- 58
2020-09-04 08:00:00 14.1 3 Este 9 Nordeste 0 -- -- 60
2020-09-04 07:00:00 14.9 6 Nordeste 9 Nordeste 0 -- -- 57
2020-09-04 06:00:00 16.4 6 Nordeste 10 Nordeste 0 -- -- 55
2020-09-04 05:00:00 20.5 4 Este 10 Norte 0 -- -- 59
2020-09-04 04:00:00 21.3 4 Noroeste 23 Sudeste 0 -- -- 55
2020-09-04 03:00:00 21.3 6 Norte 12 Sudoeste 0 -- -- 50
2020-09-04 02:00:00 20.7 5 Este 18 Sudeste 0 -- -- 48
2020-09-04 01:00:00 18.8 8 Nordeste 15 Nordeste 0 -- -- 42
2020-09-04 00:00:00 18.4 6 Nordeste 8 Nordeste 0 -- -- 42
2020-09-03 23:00:00 20.5 4 Nordeste 7 Nordeste 0 -- -- 38
2020-09-03 22:00:00 22.6 3 Nordeste 4 Este 0 -- -- 32
2020-09-03 21:00:00 27.4 5 Sur 10 Oeste 0 -- -- 30
2020-09-03 20:00:00 31.4 5 Oeste 18 Sudoeste 0 -- -- 22
2020-09-03 19:00:00 31.9 8 Oeste 17 Oeste 0 -- -- 22
2020-09-03 18:00:00 32 5 Noroeste 22 Oeste 0 -- -- 22
2020-09-03 17:00:00 32 10 Oeste 22 Sudoeste 0 -- -- 23
2020-09-03 16:00:00 32 12 Oeste 25 Sudoeste 0 -- -- 25
2020-09-03 15:00:00 31.1 9 Oeste 22 Oeste 0 -- -- 23
2020-09-03 14:00:00 29.9 7 Noroeste 18 Oeste 0 -- -- 29
2020-09-03 13:00:00 27.9 5 Sudeste 13 Nordeste 0 -- -- 39
2020-09-03 12:00:00 25.4 4 Nordeste 13 Nordeste 0 -- -- 46
2020-09-03 11:00:00 22.6 5 Este 11 Nordeste 0 -- -- 51
2020-09-03 10:00:00 18.4 8 Nordeste 14 Nordeste 0 -- -- 50
2020-09-03 09:00:00 14.6 7 Nordeste 12 Nordeste 0 -- -- 56
2020-09-03 08:00:00 11.8 6 Nordeste 8 Nordeste 0 -- -- 63
2020-09-03 07:00:00 11.3 4 Nordeste 8 Nordeste 0 -- -- 62
2020-09-03 06:00:00 12.8 3 Este 9 Nordeste 0 -- -- 57
2020-09-03 05:00:00 13.6 2 Nordeste 12 Este 0 -- -- 53
2020-09-03 04:00:00 15.1 6 Nordeste 13 Nordeste 0 -- -- 49
2020-09-03 03:00:00 16.2 9 Nordeste 18 Este 0 -- -- 47
2020-09-03 02:00:00 17.6 11 Nordeste 21 Nordeste 0 -- -- 42
2020-09-03 01:00:00 18 10 Nordeste 15 Nordeste 0 -- -- 39
2020-09-03 00:00:00 17.8 7 Nordeste 12 Nordeste 0 -- -- 43
2020-09-02 23:00:00 19 6 Nordeste 10 Nordeste 0 -- -- 40
2020-09-02 22:00:00 21.3 4 Nordeste 8 Sur 0 -- -- 33
2020-09-02 21:00:00 25.7 4 Sur 6 Sur 0 -- -- 31
2020-09-02 20:00:00 29.6 0 Calma 11 Este 0 -- -- 23
2020-09-02 19:00:00 29.6 7 Nordeste 15 Nordeste 0 -- -- 23
2020-09-02 18:00:00 30.4 8 Este 18 Este 0 -- -- 21
2020-09-02 17:00:00 29.7 9 Norte 19 Nordeste 0 -- -- 22
2020-09-02 16:00:00 29.2 7 Sudoeste 20 Norte 0 -- -- 24
2020-09-02 15:00:00 28.3 9 Noroeste 18 Nordeste 0 -- -- 25
2020-09-02 14:00:00 26.9 7 Norte 12 Norte 0 -- -- 29
2020-09-02 13:00:00 25.6 4 Nordeste 15 Nordeste 0 -- -- 35
2020-09-02 12:00:00 23.8 10 Nordeste 22 Nordeste 0 -- -- 37
2020-09-02 11:00:00 21.2 17 Nordeste 24 Nordeste 0 -- -- 42
2020-09-02 10:00:00 17.8 16 Nordeste 25 Nordeste 0 -- -- 51
2020-09-02 09:00:00 14.5 12 Nordeste 22 Nordeste 0 -- -- 58
2020-09-02 08:00:00 12.6 10 Nordeste 15 Nordeste 0 -- -- 61
2020-09-02 07:00:00 13.4 10 Nordeste 20 Nordeste 0 -- -- 58
2020-09-02 06:00:00 14 12 Nordeste 21 Este 0 -- -- 57
2020-09-02 05:00:00 14.7 14 Nordeste 26 Nordeste 0 -- -- 55
2020-09-02 04:00:00 15.2 17 Nordeste 24 Nordeste 0 -- -- 53
2020-09-02 03:00:00 15.9 13 Nordeste 22 Nordeste 0 -- -- 50
2020-09-02 02:00:00 17 15 Nordeste 22 Nordeste 0 -- -- 46
2020-09-02 01:00:00 16.9 13 Nordeste 21 Nordeste 0 -- -- 43
2020-09-02 00:00:00 16 9 Este 15 Este 0 -- -- 42
2020-09-01 23:00:00 17.6 3 Nordeste 5 Nordeste 0 -- -- 38
2020-09-01 22:00:00 20.3 0 Calma 6 Sudeste 0 -- -- 32
2020-09-01 21:00:00 23.6 3 Sudeste 7 Sudeste 0 -- -- 28
2020-09-01 20:00:00 26.7 2 Sudeste 9 Este 0 -- -- 24
2020-09-01 19:00:00 27.2 3 Este 9 Este 0 -- -- 23
2020-09-01 18:00:00 27.4 3 Sudeste 16 Noroeste 0 -- -- 21
2020-09-01 17:00:00 26.6 8 Oeste 18 Oeste 0 -- -- 23
2020-09-01 16:00:00 25.2 5 Sudoeste 21 Oeste 0 -- -- 26
2020-09-01 15:00:00 25.8 11 Oeste 18 Sudoeste 0 -- -- 25
2020-09-01 14:00:00 24.5 10 Sudoeste 20 Oeste 0 -- -- 28
2020-09-01 13:00:00 23.2 5 Oeste 16 Nordeste 0 -- -- 31
2020-09-01 12:00:00 21.4 3 Este 10 Nordeste 0 -- -- 33
2020-09-01 11:00:00 18.7 5 Este 10 Nordeste 0 -- -- 38
2020-09-01 10:00:00 16 7 Norte 14 Sudeste 0 -- -- 42
2020-09-01 09:00:00 14.2 4 Nordeste 10 Nordeste 0 -- -- 45
2020-09-01 08:00:00 13.1 6 Este 12 Nordeste 0 -- -- 47
2020-09-01 07:00:00 12.7 6 Nordeste 12 Nordeste 0 -- -- 49
2020-09-01 06:00:00 12.2 6 Nordeste 12 Nordeste 0 -- -- 51
2020-09-01 05:00:00 12.5 8 Nordeste 12 Nordeste 0 -- -- 50
2020-09-01 04:00:00 12.3 6 Nordeste 10 Nordeste 0 -- -- 49
2020-09-01 03:00:00 12.3 8 Nordeste 10 Este 0 -- -- 49
2020-09-01 02:00:00 12.8 6 Nordeste 13 Nordeste 0 -- -- 47
2020-09-01 01:00:00 12.5 7 Nordeste 10 Nordeste 0 -- -- 45
2020-09-01 00:00:00 13.3 5 Nordeste 7 Nordeste 0 -- -- 43
2020-08-31 23:00:00 15.3 4 Nordeste 7 Nordeste 0 -- -- 39
2020-08-31 22:00:00 17.7 3 Nordeste 6 Sur 0 -- -- 33
2020-08-31 21:00:00 22.4 4 Sudoeste 8 Sudoeste 0 -- -- 27
2020-08-31 20:00:00 24.6 3 Sur 12 Sudoeste 0 -- -- 23
2020-08-31 19:00:00 26.3 4 Sudoeste 17 Sudoeste 0 -- -- 21
2020-08-31 18:00:00 25.8 9 Sudoeste 26 Oeste 0 -- -- 20
2020-08-31 17:00:00 25.7 7 Sudoeste 23 Oeste 0 -- -- 21
2020-08-31 16:00:00 25.1 14 Oeste 25 Sudoeste 0 -- -- 25
2020-08-31 15:00:00 24.6 12 Oeste 21 Sudoeste 0 -- -- 26
2020-08-31 14:00:00 23.7 10 Oeste 21 Sudoeste 0 -- -- 27
2020-08-31 13:00:00 22.2 7 Noroeste 14 Oeste 0 -- -- 30
2020-08-31 12:00:00 20.5 6 Nordeste 13 Nordeste 0 -- -- 36
2020-08-31 11:00:00 17.5 8 Nordeste 15 Este 0 -- -- 48
2020-08-31 10:00:00 13.8 10 Nordeste 17 Este 0 -- -- 60
2020-08-31 09:00:00 10.5 10 Nordeste 16 Nordeste 0 -- -- 70
2020-08-31 08:00:00 8.4 10 Nordeste 17 Nordeste 0 -- -- 76
2020-08-31 07:00:00 8.9 11 Nordeste 16 Este 0 -- -- 74
2020-08-31 06:00:00 9.3 10 Este 15 Este 0 -- -- 72
2020-08-31 05:00:00 10.2 10 Nordeste 15 Este 0 -- -- 68
2020-08-31 04:00:00 10.8 8 Nordeste 15 Nordeste 0 -- -- 66
2020-08-31 03:00:00 11.7 9 Nordeste 18 Nordeste 0 -- -- 62
2020-08-31 02:00:00 12.7 10 Nordeste 18 Nordeste 0 -- -- 56
2020-08-31 01:00:00 13.4 10 Nordeste 16 Nordeste 0 -- -- 49
2020-08-31 00:00:00 14.5 9 Nordeste 17 Nordeste 0 -- -- 43
2020-08-30 23:00:00 15.5 4 Nordeste 13 Nordeste 0 -- -- 39
2020-08-30 22:00:00 18.4 10 Nordeste 20 Norte 0 -- -- 33
2020-08-30 21:00:00 20.2 10 Norte 24 Nordeste 0 -- -- 30
2020-08-30 20:00:00 22.2 11 Nordeste 23 Norte 0 -- -- 28
2020-08-30 19:00:00 23.4 16 Nordeste 28 Nordeste 0 -- -- 27
2020-08-30 18:00:00 24.4 5 Sudeste 15 Nordeste 0 -- -- 26
2020-08-30 17:00:00 22.5 10 Nordeste 36 Nordeste 0 -- -- 28
2020-08-30 16:00:00 22.8 9 Nordeste 27 Nordeste 0 -- -- 28
2020-08-30 15:00:00 22.5 11 Norte 28 Nordeste 0 -- -- 30
2020-08-30 14:00:00 21.8 8 Norte 26 Nordeste 0 -- -- 34
2020-08-30 13:00:00 20.4 15 Nordeste 26 Nordeste 0 -- -- 37
2020-08-30 12:00:00 18.8 11 Nordeste 31 Nordeste 0 -- -- 41
2020-08-30 11:00:00 16.7 15 Nordeste 23 Este 0 -- -- 47
2020-08-30 10:00:00 13 8 Nordeste 15 Nordeste 0 -- -- 58
2020-08-30 09:00:00 8.9 4 Este 6 Este 0 -- -- 73
2020-08-30 08:00:00 6.3 0 Calma 5 Sudoeste 0 -- -- 79
2020-08-30 07:00:00 7.3 3 Sudoeste 6 Sudoeste 0 -- -- 74
2020-08-30 06:00:00 8.7 3 Nordeste 9 Nordeste 0 -- -- 71
2020-08-30 05:00:00 9.9 9 Nordeste 14 Nordeste 0 -- -- 66
2020-08-30 04:00:00 10.8 9 Nordeste 14 Nordeste 0 -- -- 64
2020-08-30 03:00:00 11.7 2 Este 12 Nordeste 0 -- -- 62
2020-08-30 02:00:00 13.6 4 Sudeste 27 Nordeste 0 -- -- 56
2020-08-30 01:00:00 15.1 17 Nordeste 29 Nordeste 0 -- -- 52
2020-08-30 00:00:00 16.2 17 Nordeste 28 Nordeste 0 -- -- 52
2020-08-29 23:00:00 17 13 Norte 24 Nordeste 0 -- -- 50
2020-08-29 22:00:00 17.9 17 Nordeste 33 Norte 0 -- -- 44
2020-08-29 21:00:00 19.5 10 Norte 30 Nordeste 0 -- -- 37
2020-08-29 20:00:00 21.4 18 Norte 46 Norte 0 -- -- 35
2020-08-29 19:00:00 22.5 21 Norte 34 Norte 0 -- -- 31
2020-08-29 18:00:00 23.7 15 Norte 35 Noroeste 0 -- -- 28
2020-08-29 17:00:00 24.1 20 Noroeste 38 Noroeste 0 -- -- 28
2020-08-29 16:00:00 23.4 22 Noroeste 39 Norte 0 -- -- 29
2020-08-29 15:00:00 23.3 17 Norte 43 Norte 0 -- -- 30
2020-08-29 14:00:00 22.1 15 Norte 39 Noroeste 0 -- -- 33
2020-08-29 13:00:00 21.7 15 Norte 32 Noroeste 0 -- -- 34
2020-08-29 12:00:00 20.3 14 Norte 30 Nordeste 0 -- -- 37
2020-08-29 11:00:00 19 21 Nordeste 35 Nordeste 0 -- -- 40
2020-08-29 10:00:00 17.2 19 Norte 29 Norte 0 -- -- 42
2020-08-29 09:00:00 14.9 12 Norte 24 Norte 0 -- -- 54
2020-08-29 08:00:00 13.7 10 Norte 19 Nordeste 0 -- -- 64
2020-08-29 07:00:00 14.1 10 Nordeste 22 Norte 0 -- -- 63
2020-08-29 06:00:00 14.8 13 Norte 21 Nordeste 0 -- -- 61
2020-08-29 05:00:00 15.2 14 Nordeste 33 Nordeste 0 -- -- 62
2020-08-29 04:00:00 15.7 26 Nordeste 39 Nordeste 0 -- -- 62
2020-08-29 03:00:00 16.4 27 Nordeste 41 Nordeste 0 -- -- 64
2020-08-29 02:00:00 17.6 23 Nordeste 35 Nordeste 0 -- -- 61
2020-08-29 01:00:00 19.7 18 Nordeste 31 Nordeste 0 -- -- 57
2020-08-29 00:00:00 22.4 6 Nordeste 14 Oeste 0 -- -- 27
2020-08-28 23:00:00 22.2 4 Sudoeste 10 Norte 0 -- -- 26
2020-08-28 22:00:00 25.3 5 Oeste 17 Noroeste 0 -- -- 19
2020-08-28 21:00:00 27.9 5 Noroeste 26 Oeste 0 -- -- 16
2020-08-28 20:00:00 30.8 18 Oeste 39 Oeste 0 -- -- 20
2020-08-28 19:00:00 32 19 Noroeste 36 Noroeste 0 -- -- 24
2020-08-28 18:00:00 32.9 22 Oeste 40 Oeste 0 -- -- 26
2020-08-28 17:00:00 33.5 23 Oeste 40 Sudoeste 0 -- -- 26
2020-08-28 16:00:00 33.9 22 Oeste 42 Sudoeste 0 -- -- 27
2020-08-28 15:00:00 33.3 21 Sudoeste 38 Sudoeste 0 -- -- 27
2020-08-28 14:00:00 32.7 13 Sudoeste 34 Sudoeste 0 -- -- 30
2020-08-28 13:00:00 31.4 15 Sudoeste 26 Sudoeste 0 -- -- 30
2020-08-28 12:00:00 29.7 6 Noroeste 13 Sudoeste 0 -- -- 33
2020-08-28 11:00:00 27.6 3 Nordeste 8 Sudeste 0 -- -- 38
2020-08-28 10:00:00 22.9 0 Calma 9 Este 0 -- -- 48
2020-08-28 09:00:00 20.1 3 Nordeste 8 Este 0 -- -- 52
2020-08-28 08:00:00 18.7 7 Nordeste 12 Nordeste 0 -- -- 57
2020-08-28 07:00:00 17.9 5 Nordeste 10 Este 0 -- -- 56
2020-08-28 06:00:00 18.5 5 Este 12 Nordeste 0 -- -- 51
2020-08-28 05:00:00 18.7 5 Este 8 Este 0 -- -- 50
2020-08-28 04:00:00 19.8 5 Nordeste 10 Nordeste 0 -- -- 46
2020-08-28 03:00:00 20.8 4 Este 11 Nordeste 0 -- -- 44
2020-08-28 02:00:00 21.3 5 Nordeste 10 Nordeste 0 -- -- 41
2020-08-28 01:00:00 22.7 9 Nordeste 12 Este 0 -- -- 39
2020-08-28 00:00:00 24.3 6 Nordeste 8 Nordeste 0 -- -- 34
2020-08-27 23:00:00 25.4 8 Nordeste 12 Nordeste 0 -- -- 33
2020-08-27 22:00:00 27.7 0 Calma 8 Sur 0 -- -- 30
2020-08-27 21:00:00 31.8 5 Sudoeste 15 Sudoeste 0 -- -- 24
2020-08-27 20:00:00 35.8 8 Sudoeste 20 Sudoeste 0 -- -- 21
2020-08-27 19:00:00 37.1 8 Sudoeste 25 Oeste 0 -- -- 21
2020-08-27 18:00:00 37.9 5 Sudoeste 21 Sudoeste 0 -- -- 19
2020-08-27 17:00:00 37.9 10 Sur 26 Sudoeste 0 -- -- 20
2020-08-27 16:00:00 37.5 7 Sudoeste 26 Oeste 0 -- -- 20
2020-08-27 15:00:00 37.1 10 Sudoeste 23 Sudoeste 0 -- -- 20
2020-08-27 14:00:00 35.6 11 Sudoeste 24 Sudoeste 0 -- -- 21
2020-08-27 13:00:00 34.1 5 Nordeste 11 Norte 0 -- -- 25
2020-08-27 12:00:00 31.4 4 Noroeste 10 Nordeste 0 -- -- 28
2020-08-27 11:00:00 27.9 5 Nordeste 10 Nordeste 0 -- -- 34
2020-08-27 10:00:00 23.9 5 Nordeste 12 Nordeste 0 -- -- 47
2020-08-27 09:00:00 19.6 7 Nordeste 13 Nordeste 0 -- -- 58
2020-08-27 08:00:00 15.9 4 Nordeste 8 Nordeste 0 -- -- 61
2020-08-27 07:00:00 16.1 3 Este 7 Este 0 -- -- 59
2020-08-27 06:00:00 16.9 2 Este 6 Este 0 -- -- 57
2020-08-27 05:00:00 18.5 5 Norte 8 Norte 0 -- -- 52
2020-08-27 04:00:00 19.1 5 Nordeste 10 Nordeste 0 -- -- 46
2020-08-27 03:00:00 19.7 3 Nordeste 11 Nordeste 0 -- -- 45
2020-08-27 02:00:00 21.6 7 Nordeste 15 Este 0 -- -- 40
2020-08-27 01:00:00 21.3 3 Nordeste 8 Nordeste 0 -- -- 39
2020-08-27 00:00:00 22.5 4 Este 13 Norte 0 -- -- 38
2020-08-26 23:00:00 24.7 5 Nordeste 8 Nordeste 0 -- -- 36
2020-08-26 22:00:00 27.2 4 Sudoeste 6 Sur 0 -- -- 30
2020-08-26 21:00:00 32.1 2 Sur 13 Sur 0 -- -- 25
2020-08-26 20:00:00 36.1 11 Sudoeste 26 Oeste 0 -- -- 19
2020-08-26 19:00:00 37.3 13 Sudoeste 27 Sudoeste 0 -- -- 19
2020-08-26 18:00:00 37.7 11 Sudoeste 30 Oeste 0 -- -- 19
2020-08-26 17:00:00 37.7 13 Oeste 31 Sudoeste 0 -- -- 19
2020-08-26 16:00:00 37.2 16 Oeste 35 Oeste 0 -- -- 20
2020-08-26 15:00:00 36.6 14 Sudoeste 27 Oeste 0 -- -- 21
2020-08-26 14:00:00 35.9 11 Oeste 24 Sudoeste 0 -- -- 23
2020-08-26 13:00:00 33.9 9 Oeste 20 Oeste 0 -- -- 28
2020-08-26 12:00:00 30.7 4 Sudoeste 10 Oeste 0 -- -- 34
2020-08-26 11:00:00 27.3 5 Nordeste 14 Nordeste 0 -- -- 38
2020-08-26 10:00:00 23.4 9 Nordeste 16 Nordeste 0 -- -- 41
2020-08-26 09:00:00 19.1 6 Este 13 Nordeste 0 -- -- 51
2020-08-26 08:00:00 16.3 6 Nordeste 10 Nordeste 0 -- -- 59
2020-08-26 07:00:00 17 5 Nordeste 12 Este 0 -- -- 56
2020-08-26 06:00:00 17.6 7 Nordeste 11 Este 0 -- -- 55
2020-08-26 05:00:00 18.8 6 Nordeste 17 Nordeste 0 -- -- 51
2020-08-26 04:00:00 18.5 4 Este 14 Nordeste 0 -- -- 52
2020-08-26 03:00:00 19.3 5 Sudeste 12 Este 0 -- -- 49
2020-08-26 02:00:00 20.1 8 Nordeste 12 Nordeste 0 -- -- 47
2020-08-26 01:00:00 20.3 5 Nordeste 8 Nordeste 0 -- -- 42
2020-08-26 00:00:00 21.9 5 Nordeste 8 Nordeste 0 -- -- 43
2020-08-25 23:00:00 24.6 4 Nordeste 5 Nordeste 0 -- -- 37
2020-08-25 22:00:00 27.1 0 Calma 6 Sur 0 -- -- 31
2020-08-25 21:00:00 32.3 5 Sur 17 Sudoeste 0 -- -- 26
2020-08-25 20:00:00 35.7 11 Sudoeste 21 Oeste 0 -- -- 22
2020-08-25 19:00:00 36.4 14 Oeste 26 Oeste 0 -- -- 23
2020-08-25 18:00:00 36.8 14 Oeste 28 Sudoeste 0 -- -- 22
2020-08-25 17:00:00 36.7 7 Oeste 27 Oeste 0 -- -- 22
2020-08-25 16:00:00 36.6 14 Oeste 30 Sudoeste 0 -- -- 21
2020-08-25 15:00:00 35.8 10 Sudoeste 25 Oeste 0 -- -- 26
2020-08-25 14:00:00 34.2 6 Sudoeste 20 Oeste 0 -- -- 31
2020-08-25 13:00:00 32.1 5 Oeste 14 Oeste 0 -- -- 39
2020-08-25 12:00:00 29.2 4 Oeste 11 Nordeste 0 -- -- 47
2020-08-25 11:00:00 26.6 5 Este 9 Nordeste 0 -- -- 49
2020-08-25 10:00:00 22.8 4 Este 11 Nordeste 0 -- -- 48
2020-08-25 09:00:00 19.5 7 Nordeste 10 Nordeste 0 -- -- 53
2020-08-25 08:00:00 17.4 7 Nordeste 12 Nordeste 0 -- -- 56
2020-08-25 07:00:00 17.7 8 Nordeste 14 Este 0 -- -- 54
2020-08-25 06:00:00 18 7 Nordeste 11 Nordeste 0 -- -- 53
2020-08-25 05:00:00 18.8 6 Nordeste 15 Nordeste 0 -- -- 50
2020-08-25 04:00:00 19.3 9 Nordeste 14 Norte 0 -- -- 51
2020-08-25 03:00:00 18.8 8 Este 12 Este 0 -- -- 52
2020-08-25 02:00:00 19.7 4 Nordeste 9 Nordeste 0 -- -- 50
2020-08-25 01:00:00 21 8 Nordeste 13 Nordeste 0 -- -- 48
2020-08-25 00:00:00 21.8 5 Nordeste 8 Nordeste 0 -- -- 46
2020-08-24 23:00:00 24.2 4 Nordeste 5 Nordeste 0 -- -- 41
2020-08-24 22:00:00 26.1 0 Calma 6 Sur 0 -- -- 36
2020-08-24 21:00:00 30.7 0 Calma 8 Sudoeste 0 -- -- 30
2020-08-24 20:00:00 33.9 6 Sudoeste 18 Oeste 0 -- -- 23
2020-08-24 19:00:00 34.4 9 Oeste 24 Oeste 0 -- -- 24
2020-08-24 18:00:00 34.2 12 Sudoeste 22 Sudoeste 0 -- -- 24
2020-08-24 17:00:00 34.6 7 Oeste 23 Oeste 0 -- -- 27
2020-08-24 16:00:00 34.1 13 Oeste 23 Oeste 0 -- -- 29
2020-08-24 15:00:00 33.3 9 Sudoeste 24 Oeste 0 -- -- 33
2020-08-24 14:00:00 32 10 Sur 19 Sudeste 0 -- -- 38
2020-08-24 13:00:00 30 8 Este 15 Este 0 -- -- 47
2020-08-24 12:00:00 28.3 4 Sur 12 Nordeste 0 -- -- 52
2020-08-24 11:00:00 25.2 6 Nordeste 15 Nordeste 0 -- -- 47
2020-08-24 10:00:00 22.5 11 Nordeste 21 Nordeste 0 -- -- 49
2020-08-24 09:00:00 19.2 10 Nordeste 18 Nordeste 0 -- -- 57
2020-08-24 08:00:00 17.6 9 Nordeste 14 Nordeste 0 -- -- 60
2020-08-24 07:00:00 17.7 7 Nordeste 17 Este 0 -- -- 59
2020-08-24 06:00:00 18.5 13 Nordeste 22 Este 0 -- -- 57
2020-08-24 05:00:00 18.5 11 Nordeste 16 Nordeste 0 -- -- 55
2020-08-24 04:00:00 19 10 Este 18 Nordeste 0 -- -- 53
2020-08-24 03:00:00 19.7 9 Nordeste 18 Nordeste 0 -- -- 50
2020-08-24 02:00:00 21 13 Nordeste 24 Nordeste 0 -- -- 45
2020-08-24 01:00:00 21.8 15 Nordeste 22 Nordeste 0 -- -- 40
2020-08-24 00:00:00 21.3 9 Nordeste 17 Nordeste 0 -- -- 33
2020-08-23 23:00:00 22.1 6 Este 15 Nordeste 0 -- -- 33
2020-08-23 22:00:00 24.7 2 Este 6 Nordeste 0 -- -- 31
2020-08-23 21:00:00 30.7 0 Calma 5 Norte 0 -- -- 23
2020-08-23 20:00:00 34.3 3 Sur 14 Sudoeste 0 -- -- 17
2020-08-23 19:00:00 33.9 4 Nordeste 18 Oeste 0 -- -- 18
2020-08-23 18:00:00 33.9 9 Norte 18 Oeste 0 -- -- 18
2020-08-23 17:00:00 34.4 10 Oeste 21 Oeste 0 -- -- 17
2020-08-23 16:00:00 33.7 10 Oeste 19 Oeste 0 -- -- 19
2020-08-23 15:00:00 32.2 5 Norte 22 Norte 0 -- -- 22
2020-08-23 14:00:00 31.8 7 Norte 24 Nordeste 0 -- -- 24
2020-08-23 13:00:00 30.3 13 Nordeste 24 Nordeste 0 -- -- 30
2020-08-23 12:00:00 28.3 14 Nordeste 23 Nordeste 0 -- -- 34
2020-08-23 11:00:00 25.2 13 Nordeste 23 Nordeste 0 -- -- 46
2020-08-23 10:00:00 21.8 17 Nordeste 24 Nordeste 0 -- -- 55
2020-08-23 09:00:00 18.4 12 Nordeste 18 Nordeste 0 -- -- 66
2020-08-23 08:00:00 16.8 11 Nordeste 19 Nordeste 0 -- -- 70
2020-08-23 07:00:00 16.9 11 Este 19 Nordeste 0 -- -- 69
2020-08-23 06:00:00 17.6 9 Nordeste 17 Nordeste 0 -- -- 66
2020-08-23 05:00:00 18.5 12 Nordeste 18 Nordeste 0 -- -- 62
2020-08-23 04:00:00 18.3 10 Nordeste 17 Este 0 -- -- 56
2020-08-23 03:00:00 18.8 9 Nordeste 14 Nordeste 0 -- -- 46
2020-08-23 02:00:00 20 11 Nordeste 15 Nordeste 0 -- -- 42
2020-08-23 01:00:00 20.7 6 Nordeste 14 Nordeste 0 -- -- 41
2020-08-23 00:00:00 21.6 12 Nordeste 15 Nordeste 0 -- -- 37